Time;durP1;ratioP1;P1;durP2;ratioP2;P2;SDS_P1;SDS_P2;PMS_P1;PMS_P2;Temp;Humidity;BMP_temperature;BMP_pressure;BME280_temperature;BME280_humidity;BME280_pressure;Samples;Min_cycle;Max_cycle;Signal;HPM_P1;HPM_P2
2022/04/08 00:00:37;;;;;;;8.43;2.80;;;7.80;99.90;;;;;;5089724;28;20047;-51
2022/04/08 00:03:21;;;;;;;8.68;2.75;;;7.80;99.90;;;;;;5084345;28;20106;-49
2022/04/08 00:06:06;;;;;;;8.65;3.38;;;7.80;99.90;;;;;;5079912;28;20113;-49
2022/04/08 00:08:50;;;;;;;3.63;2.40;;;7.80;99.90;;;;;;5092044;28;20093;-46
2022/04/08 00:11:34;;;;;;;6.43;2.53;;;7.80;99.60;;;;;;5072006;28;20046;-47
2022/04/08 00:14:18;;;;;;;6.17;2.60;;;7.90;99.90;;;;;;5086621;28;20510;-50
2022/04/08 00:17:04;;;;;;;5.13;2.50;;;7.90;99.90;;;;;;5086743;28;20445;-44
2022/04/08 00:19:49;;;;;;;5.55;2.70;;;7.90;99.60;;;;;;5090313;28;20031;-44
2022/04/08 00:22:39;;;;;;;10.15;3.15;;;7.90;99.60;;;;;;5086888;28;20537;-48
2022/04/08 00:25:23;;;;;;;6.30;2.50;;;7.90;99.60;;;;;;5092229;28;20043;-47
2022/04/08 00:28:07;;;;;;;6.20;2.57;;;8.00;99.60;;;;;;5093908;28;20042;-49
2022/04/08 00:30:51;;;;;;;5.15;2.78;;;8.00;99.30;;;;;;5094326;28;20042;-45
2022/04/08 00:33:35;;;;;;;6.55;3.50;;;7.90;99.50;;;;;;5094954;28;20030;-46
2022/04/08 00:36:20;;;;;;;5.32;3.05;;;7.90;99.60;;;;;;5083967;28;20058;-48
2022/04/08 00:39:04;;;;;;;8.05;3.05;;;7.90;99.70;;;;;;5073698;28;20045;-50
2022/04/08 00:41:48;;;;;;;4.30;3.17;;;7.90;99.80;;;;;;5093198;28;20448;-46
2022/04/08 00:44:33;;;;;;;8.82;2.95;;;7.90;99.90;;;;;;5074764;28;20073;-50
2022/04/08 00:47:17;;;;;;;5.55;3.20;;;7.70;99.90;;;;;;5090387;28;20047;-52
2022/04/08 00:50:02;;;;;;;8.75;3.58;;;7.70;99.90;;;;;;5093590;28;20032;-52
2022/04/08 00:52:46;;;;;;;3.95;2.70;;;7.70;99.90;;;;;;5073057;28;20097;-44
2022/04/08 00:55:30;;;;;;;3.33;2.57;;;7.70;99.90;;;;;;5073326;28;20032;-45
2022/04/08 00:58:15;;;;;;;6.18;2.85;;;7.60;99.90;;;;;;5091571;28;20027;-44
2022/04/08 01:00:59;;;;;;;6.28;2.70;;;7.60;99.90;;;;;;5084838;28;20109;-48
2022/04/08 01:03:43;;;;;;;6.03;2.90;;;7.60;99.90;;;;;;5092784;28;20051;-48
2022/04/08 01:06:27;;;;;;;5.43;2.60;;;7.40;99.90;;;;;;5090978;28;20031;-50
2022/04/08 01:09:11;;;;;;;4.00;2.97;;;7.40;99.90;;;;;;5093087;28;20403;-53
2022/04/08 01:11:56;;;;;;;6.40;2.95;;;7.40;99.90;;;;;;5080966;28;20044;-56
2022/04/08 01:14:39;;;;;;;5.40;2.78;;;7.30;99.90;;;;;;5072755;28;20510;-49
2022/04/08 01:17:24;;;;;;;6.05;2.50;;;7.40;99.90;;;;;;5076417;28;20086;-47
2022/04/08 01:20:08;;;;;;;7.03;2.78;;;7.40;99.90;;;;;;5088925;28;20043;-49
2022/04/08 01:22:52;;;;;;;7.85;3.08;;;7.40;99.90;;;;;;5083988;28;20043;-49
2022/04/08 01:25:36;;;;;;;3.83;2.55;;;7.30;99.90;;;;;;5092153;28;20039;-49
2022/04/08 01:28:21;;;;;;;4.22;2.42;;;7.40;99.90;;;;;;5082120;28;20443;-49
2022/04/08 01:31:04;;;;;;;3.92;2.50;;;7.30;99.90;;;;;;5096420;28;20089;-51
2022/04/08 01:33:48;;;;;;;5.53;2.95;;;7.30;99.90;;;;;;5109252;28;20091;-48
2022/04/08 01:36:32;;;;;;;7.65;2.80;;;7.40;99.90;;;;;;5092669;28;20162;-49
2022/04/08 01:39:17;;;;;;;5.75;2.85;;;7.50;99.90;;;;;;5072361;28;20044;-46
2022/04/08 01:42:02;;;;;;;9.52;2.97;;;7.40;99.90;;;;;;5079398;28;20094;-45
2022/04/08 01:44:47;;;;;;;4.93;3.00;;;7.40;99.90;;;;;;5092751;28;20077;-47
2022/04/08 01:47:31;;;;;;;;;;;7.50;99.90;;;;;;5080813;28;20039;-49
2022/04/08 01:50:18;;;;;;;10.38;3.63;;;7.50;99.90;;;;;;5071903;28;19919;-49
2022/04/08 01:53:02;;;;;;;5.40;2.78;;;7.60;99.90;;;;;;5071615;28;21088;-48
2022/04/08 01:55:46;;;;;;;7.97;2.92;;;7.60;99.90;;;;;;5073337;28;20035;-49
2022/04/08 01:58:30;;;;;;;6.17;3.50;;;7.60;99.90;;;;;;5091891;28;20039;-48
2022/04/08 02:01:14;;;;;;;9.38;3.17;;;7.60;99.90;;;;;;5085735;28;20039;-49
2022/04/08 02:03:58;;;;;;;6.00;3.15;;;7.50;99.90;;;;;;5078815;28;20039;-48
2022/04/08 02:06:43;;;;;;;5.70;3.75;;;7.50;99.90;;;;;;5090759;28;20110;-52
2022/04/08 02:09:27;;;;;;;5.68;3.13;;;7.60;99.90;;;;;;5092005;28;20491;-50
2022/04/08 02:12:11;;;;;;;7.00;3.60;;;7.50;99.90;;;;;;5089124;28;20522;-47
2022/04/08 02:14:55;;;;;;;3.97;3.27;;;7.60;99.90;;;;;;5091765;28;20039;-51
2022/04/08 02:17:39;;;;;;;6.63;3.15;;;7.60;99.90;;;;;;5091227;28;20034;-49
2022/04/08 02:20:25;;;;;;;5.35;3.25;;;7.50;99.90;;;;;;5092304;28;20537;-47
2022/04/08 02:23:09;;;;;;;5.20;3.40;;;7.50;99.90;;;;;;5076193;28;20051;-55
2022/04/08 02:25:55;;;;;;;9.80;3.67;;;7.60;99.90;;;;;;5076388;28;20034;-52
2022/04/08 02:28:39;;;;;;;8.48;3.55;;;7.60;99.90;;;;;;5097101;28;20519;-48
2022/04/08 02:31:23;;;;;;;7.85;3.78;;;7.60;99.90;;;;;;5088142;28;20051;-51
2022/04/08 02:34:07;;;;;;;4.85;3.35;;;7.60;99.90;;;;;;5091282;28;20043;-52
2022/04/08 02:36:51;;;;;;;5.68;3.63;;;7.60;99.90;;;;;;5083797;28;20046;-55
2022/04/08 02:39:35;;;;;;;8.98;3.75;;;7.60;99.90;;;;;;5071278;28;20443;-50
2022/04/08 02:42:19;;;;;;;6.88;3.78;;;7.50;99.90;;;;;;5081838;28;20043;-46
2022/04/08 02:45:04;;;;;;;7.23;3.40;;;7.40;99.90;;;;;;5091382;28;20035;-51
2022/04/08 02:47:48;;;;;;;5.07;3.67;;;7.40;99.90;;;;;;5071769;28;20765;-46
2022/04/08 02:50:32;;;;;;;4.82;3.65;;;7.40;99.90;;;;;;5071646;28;20101;-49
2022/04/08 02:53:16;;;;;;;6.53;3.55;;;7.30;99.90;;;;;;5091734;28;20043;-50
2022/04/08 02:56:00;;;;;;;6.63;3.83;;;7.20;99.90;;;;;;5089463;28;20101;-47
2022/04/08 02:58:48;;;;;;;6.25;4.10;;;7.20;99.90;;;;;;5091578;28;20058;-49
2022/04/08 03:01:33;;;;;;;5.72;4.82;;;7.20;99.90;;;;;;5086182;28;20099;-48
2022/04/08 03:04:17;;;;;;;6.30;3.72;;;7.20;99.90;;;;;;5091785;28;20067;-51
2022/04/08 03:07:01;;;;;;;6.37;4.10;;;7.10;99.90;;;;;;5092922;28;20464;-50
2022/04/08 03:09:45;;;;;;;7.47;4.40;;;7.00;99.90;;;;;;5094499;28;20557;-48
2022/04/08 03:12:31;;;;;;;5.38;4.00;;;6.90;99.90;;;;;;5080181;28;20438;-51
2022/04/08 03:15:15;;;;;;;6.57;4.55;;;6.90;99.90;;;;;;5074691;28;20093;-46
2022/04/08 03:17:59;;;;;;;8.95;4.25;;;6.80;99.90;;;;;;5092626;28;20441;-49
2022/04/08 03:20:44;;;;;;;8.38;4.60;;;6.80;99.90;;;;;;5095174;28;20450;-48
2022/04/08 03:23:28;;;;;;;7.20;4.37;;;6.90;99.90;;;;;;5074898;28;20071;-48
2022/04/08 03:26:12;;;;;;;9.95;4.90;;;6.90;99.90;;;;;;5075826;28;20293;-51
2022/04/08 03:28:56;;;;;;;6.03;3.58;;;6.80;99.90;;;;;;5095380;28;20117;-44
2022/04/08 03:31:40;;;;;;;5.35;3.83;;;6.90;99.90;;;;;;5092105;28;20039;-44
2022/04/08 03:34:24;;;;;;;4.03;3.60;;;7.00;99.90;;;;;;5094727;28;20403;-45
2022/04/08 03:37:10;;;;;;;6.93;4.40;;;7.00;99.90;;;;;;5074241;28;20139;-47
2022/04/08 03:39:54;;;;;;;9.65;4.10;;;7.10;99.90;;;;;;5074398;28;20112;-45
2022/04/08 03:42:38;;;;;;;10.05;4.80;;;7.10;99.90;;;;;;5106000;28;20080;-49
2022/04/08 03:45:24;;;;;;;7.78;4.43;;;6.90;99.90;;;;;;5115006;28;20556;-45
2022/04/08 03:48:09;;;;;;;6.28;3.92;;;6.90;99.90;;;;;;5074135;28;20063;-49
2022/04/08 03:50:53;;;;;;;5.80;4.35;;;7.00;99.90;;;;;;5075953;28;20066;-47
2022/04/08 03:53:37;;;;;;;5.53;4.13;;;6.90;99.90;;;;;;5074168;28;20041;-44
2022/04/08 03:56:21;;;;;;;7.32;4.07;;;7.00;99.90;;;;;;5081224;28;20035;-45
2022/04/08 03:59:05;;;;;;;4.93;3.55;;;7.10;99.90;;;;;;5095142;28;20059;-46
2022/04/08 04:01:49;;;;;;;4.88;3.80;;;7.10;99.90;;;;;;5085276;28;20051;-44
2022/04/08 04:04:34;;;;;;;5.03;3.88;;;7.00;99.90;;;;;;5085972;28;20043;-44
2022/04/08 04:07:18;;;;;;;;;;;7.10;99.90;;;;;;5079731;28;20050;-50
2022/04/08 04:10:03;;;;;;;4.95;3.38;;;7.00;99.90;;;;;;5073793;28;19915;-49
2022/04/08 04:12:47;;;;;;;5.97;3.85;;;7.00;99.90;;;;;;5089237;28;20084;-46
2022/04/08 04:15:31;;;;;;;4.65;3.50;;;7.00;99.90;;;;;;5093673;28;20075;-46
2022/04/08 04:18:15;;;;;;;6.30;3.55;;;7.10;99.90;;;;;;5074882;28;20388;-48
2022/04/08 04:21:00;;;;;;;5.03;3.42;;;7.10;99.90;;;;;;5073185;28;20039;-48
2022/04/08 04:23:45;;;;;;;6.85;3.88;;;7.10;99.90;;;;;;5073308;28;20078;-50
2022/04/08 04:26:29;;;;;;;5.75;3.85;;;7.10;99.90;;;;;;5073464;28;20097;-51
2022/04/08 04:29:13;;;;;;;6.45;3.63;;;7.00;99.90;;;;;;5072972;28;20071;-47
2022/04/08 04:31:59;;;;;;;6.38;4.13;;;7.00;99.90;;;;;;5095031;28;20036;-51
2022/04/08 04:34:44;;;;;;;6.15;3.88;;;7.00;99.90;;;;;;5093494;28;20133;-48
2022/04/08 04:37:28;;;;;;;6.13;3.65;;;7.00;99.90;;;;;;5088623;28;20098;-47
2022/04/08 04:40:15;;;;;;;8.07;3.88;;;7.00;99.90;;;;;;5093451;28;20031;-48
2022/04/08 04:43:00;;;;;;;11.63;3.75;;;7.10;99.90;;;;;;5108456;28;20055;-54
2022/04/08 04:45:44;;;;;;;;;;;7.20;99.90;;;;;;5103691;28;20035;-47
2022/04/08 04:48:28;;;;;;;6.68;3.80;;;7.20;99.90;;;;;;5093206;28;19958;-46
2022/04/08 04:51:16;;;;;;;5.18;3.50;;;7.20;99.90;;;;;;5092337;28;20028;-51
2022/04/08 04:54:00;;;;;;;3.13;2.83;;;7.30;99.90;;;;;;5077978;28;20533;-47
2022/04/08 04:56:44;;;;;;;7.82;3.13;;;7.30;99.90;;;;;;5084576;28;20557;-50
2022/04/08 04:59:28;;;;;;;6.47;3.20;;;7.40;99.90;;;;;;5073676;28;20077;-48
2022/04/08 05:02:12;;;;;;;5.38;2.88;;;7.40;99.50;;;;;;5090848;28;20051;-51
2022/04/08 05:04:56;;;;;;;6.27;2.73;;;7.40;99.30;;;;;;5090265;28;20115;-50
2022/04/08 05:07:40;;;;;;;4.88;2.67;;;7.40;99.30;;;;;;5090365;28;20046;-50
2022/04/08 05:10:26;;;;;;;5.68;2.78;;;7.50;99.10;;;;;;5091714;28;20098;-47
2022/04/08 05:13:10;;;;;;;5.25;3.13;;;7.40;99.20;;;;;;5072541;28;20052;-54
2022/04/08 05:15:54;;;;;;;5.55;3.20;;;7.40;99.60;;;;;;5078645;28;20103;-46
2022/04/08 05:18:38;;;;;;;5.30;3.70;;;7.40;99.90;;;;;;5100459;28;20158;-48
2022/04/08 05:21:22;;;;;;;8.00;3.50;;;7.30;99.90;;;;;;5096810;28;20036;-49
2022/04/08 05:24:06;;;;;;;4.35;3.53;;;7.30;99.90;;;;;;5092544;28;20506;-51
2022/04/08 05:26:50;;;;;;;6.47;3.83;;;7.30;99.90;;;;;;5078859;28;20416;-53
2022/04/08 05:29:34;;;;;;;6.45;3.83;;;7.30;99.90;;;;;;5071841;28;20078;-45
2022/04/08 05:32:18;;;;;;;4.68;3.47;;;7.30;99.90;;;;;;5086537;28;20057;-49
2022/04/08 05:35:03;;;;;;;6.13;3.00;;;7.30;99.70;;;;;;5091857;28;20453;-51
2022/04/08 05:37:48;;;;;;;3.55;2.80;;;7.40;99.40;;;;;;5072938;28;20104;-47
2022/04/08 05:40:32;;;;;;;5.20;2.70;;;7.40;98.90;;;;;;5072743;28;20388;-51
2022/04/08 05:43:16;;;;;;;3.28;2.53;;;7.50;98.60;;;;;;5086139;28;20084;-51
2022/04/08 05:46:00;;;;;;;4.55;2.83;;;7.50;98.30;;;;;;5091138;28;20564;-51
2022/04/08 05:48:44;;;;;;;5.32;3.00;;;7.60;98.10;;;;;;5092045;28;20069;-48
2022/04/08 05:51:28;;;;;;;5.28;2.70;;;7.70;97.90;;;;;;5084557;28;20066;-46
2022/04/08 05:54:12;;;;;;;4.57;2.20;;;7.60;98.20;;;;;;5085567;28;20158;-49
2022/04/08 05:57:00;;;;;;;5.32;2.92;;;7.70;98.00;;;;;;5091172;28;20035;-47
2022/04/08 05:59:45;;;;;;;8.23;3.25;;;7.80;97.80;;;;;;5091205;28;20031;-53
2022/04/08 06:02:29;;;;;;;3.92;3.13;;;7.70;97.80;;;;;;5090487;28;20030;-54
2022/04/08 06:05:18;;;;;;;6.10;3.10;;;7.70;98.10;;;;;;5088589;28;20093;-49
2022/04/08 06:08:04;;;;;;;5.07;2.90;;;7.80;98.80;;;;;;5082450;28;20043;-53
2022/04/08 06:10:48;;;;;;;4.85;2.60;;;7.70;98.70;;;;;;5082731;28;20539;-50
2022/04/08 06:13:32;;;;;;;4.78;2.60;;;7.50;99.30;;;;;;5072088;28;20051;-45
2022/04/08 06:16:17;;;;;;;4.00;2.63;;;7.40;99.50;;;;;;5085110;28;20036;-47
2022/04/08 06:19:01;;;;;;;3.80;2.35;;;7.40;99.70;;;;;;5072537;28;20289;-53
2022/04/08 06:21:46;;;;;;;5.25;2.33;;;7.30;99.00;;;;;;5087876;28;20039;-49
2022/04/08 06:24:30;;;;;;;3.10;2.22;;;7.30;98.80;;;;;;5079812;28;20394;-49
2022/04/08 06:27:13;;;;;;;3.15;2.40;;;7.30;98.60;;;;;;5085939;28;20400;-53
2022/04/08 06:29:58;;;;;;;4.73;2.60;;;7.30;98.60;;;;;;5092963;28;20647;-52
2022/04/08 06:32:45;;;;;;;5.47;2.20;;;7.20;98.90;;;;;;5089711;28;20111;-50
2022/04/08 06:35:30;;;;;;;2.60;1.90;;;7.20;98.80;;;;;;5084526;28;20395;-54
2022/04/08 06:38:15;;;;;;;2.78;1.95;;;7.30;98.80;;;;;;5075117;28;20031;-51
2022/04/08 06:40:59;;;;;;;4.65;2.40;;;7.50;98.70;;;;;;5095799;28;20039;-47
2022/04/08 06:43:43;;;;;;;3.30;2.72;;;7.60;98.60;;;;;;5109679;28;20093;-47
2022/04/08 06:46:27;;;;;;;3.63;2.30;;;7.60;98.20;;;;;;5096850;28;20039;-51
2022/04/08 06:49:11;;;;;;;5.60;2.05;;;7.70;98.10;;;;;;5097244;28;20042;-50
2022/04/08 06:51:58;;;;;;;3.93;2.53;;;7.80;97.60;;;;;;5097982;28;20046;-51
2022/04/08 06:54:42;;;;;;;6.55;2.35;;;7.90;96.90;;;;;;5077824;28;20097;-48
2022/04/08 06:57:27;;;;;;;3.83;2.00;;;7.80;96.40;;;;;;5090832;28;20571;-48
2022/04/08 07:00:12;;;;;;;5.47;2.15;;;7.80;96.60;;;;;;5078158;28;20039;-49
2022/04/08 07:02:56;;;;;;;4.22;2.30;;;7.70;96.30;;;;;;5077075;28;20040;-52
2022/04/08 07:05:40;;;;;;;5.60;2.53;;;7.80;96.40;;;;;;5082907;28;20039;-54
2022/04/08 07:08:24;;;;;;;4.30;2.10;;;7.70;96.20;;;;;;5097602;28;20123;-49
2022/04/08 07:11:09;;;;;;;2.53;2.10;;;7.70;95.90;;;;;;5087687;28;20596;-51
2022/04/08 07:13:53;;;;;;;5.47;2.35;;;7.90;96.10;;;;;;5076752;28;20109;-53
2022/04/08 07:16:37;;;;;;;3.80;2.38;;;8.10;96.00;;;;;;5090675;28;20123;-51
2022/04/08 07:19:22;;;;;;;5.30;2.70;;;8.10;95.50;;;;;;5097794;28;20061;-47
2022/04/08 07:22:05;;;;;;;9.10;2.60;;;8.20;95.70;;;;;;5080239;28;20032;-48
2022/04/08 07:24:50;;;;;;;3.40;2.30;;;8.10;95.40;;;;;;5095242;28;20050;-49
2022/04/08 07:27:49;;;;;;;4.15;2.10;;;8.00;95.20;;;;;;5098539;28;20039;-47
2022/04/08 07:30:34;;;;;;;5.53;2.85;;;7.90;94.80;;;;;;5095962;28;20443;-52
2022/04/08 07:33:18;;;;;;;5.63;2.00;;;7.80;95.20;;;;;;5078202;28;20082;-49
2022/04/08 07:36:03;;;;;;;4.00;1.98;;;7.70;95.80;;;;;;5083521;28;20126;-51
2022/04/08 07:38:47;;;;;;;3.63;1.90;;;7.60;96.60;;;;;;5093879;28;20034;-51
2022/04/08 07:41:31;;;;;;;5.00;1.90;;;7.60;97.20;;;;;;5086500;28;20031;-46
2022/04/08 07:44:15;;;;;;;2.80;1.93;;;7.60;97.50;;;;;;5083714;28;20031;-46
2022/04/08 07:47:00;;;;;;;5.17;2.30;;;7.50;98.40;;;;;;5078135;28;20039;-49
2022/04/08 07:49:44;;;;;;;2.92;1.75;;;7.60;98.50;;;;;;5074343;28;20550;-49
2022/04/08 07:52:28;;;;;;;3.47;2.67;;;7.50;98.20;;;;;;5071931;28;20038;-56
2022/04/08 07:55:13;;;;;;;2.65;1.50;;;7.30;98.00;;;;;;5088086;28;20731;-47
2022/04/08 07:57:57;;;;;;;2.35;1.50;;;7.30;98.40;;;;;;5088872;28;20043;-50
2022/04/08 08:00:41;;;;;;;6.40;1.67;;;7.50;98.20;;;;;;5090576;28;20040;-45
2022/04/08 08:03:25;;;;;;;4.15;2.05;;;7.60;97.20;;;;;;5082211;28;20047;-52
2022/04/08 08:06:11;;;;;;;5.97;1.80;;;7.50;96.30;;;;;;5091637;28;20066;-49
2022/04/08 08:08:55;;;;;;;4.53;2.17;;;7.40;95.30;;;;;;5074161;28;20455;-49
2022/04/08 08:11:39;;;;;;;7.80;2.05;;;7.40;94.90;;;;;;5073482;28;20098;-53
2022/04/08 08:14:23;;;;;;;7.30;2.20;;;7.50;94.60;;;;;;5073991;28;20400;-48
2022/04/08 08:17:07;;;;;;;7.18;2.67;;;7.60;94.50;;;;;;5075540;28;20519;-52
2022/04/08 08:19:51;;;;;;;6.45;2.08;;;7.70;94.70;;;;;;5073460;28;20028;-53
2022/04/08 08:22:36;;;;;;;5.17;2.27;;;7.80;94.30;;;;;;5073424;28;20170;-52
2022/04/08 08:25:21;;;;;;;3.85;1.83;;;7.70;94.50;;;;;;5073575;28;20038;-51
2022/04/08 08:28:05;;;;;;;6.68;1.95;;;7.60;94.90;;;;;;5073002;28;20576;-51
2022/04/08 08:30:50;;;;;;;3.55;1.92;;;7.60;95.20;;;;;;5075672;28;20085;-51
2022/04/08 08:33:34;;;;;;;2.65;1.75;;;7.80;95.00;;;;;;5072989;28;20535;-50
2022/04/08 08:36:18;;;;;;;4.87;1.90;;;8.00;94.80;;;;;;5085056;28;20035;-51
2022/04/08 08:39:02;;;;;;;4.87;2.17;;;8.10;94.40;;;;;;5093430;28;20078;-53
2022/04/08 08:41:48;;;;;;;5.55;2.45;;;8.40;94.10;;;;;;5100053;28;20022;-48
2022/04/08 08:44:33;;;;;;;5.18;2.00;;;8.30;92.60;;;;;;5113472;28;20055;-47
2022/04/08 08:47:18;;;;;;;5.85;2.50;;;8.30;92.70;;;;;;5112399;28;20057;-49
2022/04/08 08:50:04;;;;;;;6.28;2.00;;;8.10;92.40;;;;;;5113285;28;20502;-52
2022/04/08 08:52:50;;;;;;;7.68;3.15;;;8.20;92.40;;;;;;5112856;28;20081;-53
2022/04/08 08:55:34;;;;;;;6.95;2.03;;;8.10;92.10;;;;;;5102101;28;20035;-53
2022/04/08 08:58:18;;;;;;;11.73;2.60;;;8.20;92.10;;;;;;5073048;28;20689;-53
2022/04/08 09:01:03;;;;;;;8.15;2.35;;;8.30;91.70;;;;;;5089707;28;20097;-50
2022/04/08 09:03:47;;;;;;;5.80;2.20;;;8.40;90.90;;;;;;5093793;28;20043;-46
2022/04/08 09:06:40;;;;;;;9.20;3.60;;;8.70;90.90;;;;;;5092819;28;20089;-47
2022/04/08 09:09:30;;;;;;;6.95;3.08;;;8.70;90.30;;;;;;5092912;28;20040;-49
2022/04/08 09:12:15;;;;;;;7.78;2.88;;;8.80;90.50;;;;;;5092555;28;20066;-47
2022/04/08 09:15:01;;;;;;;8.10;2.55;;;8.70;88.60;;;;;;5082848;28;20044;-52
2022/04/08 09:17:46;;;;;;;10.27;3.17;;;8.90;89.70;;;;;;5072403;28;20130;-48
2022/04/08 09:20:44;;;;;;;6.50;2.65;;;9.00;87.40;;;;;;5071312;28;20067;-47
2022/04/08 09:23:31;;;;;;;5.20;2.63;;;8.80;85.60;;;;;;5090425;28;20035;-46
2022/04/08 09:26:15;;;;;;;5.75;2.60;;;8.70;87.00;;;;;;5092513;28;20540;-52
2022/04/08 09:29:01;;;;;;;6.82;2.75;;;8.60;87.10;;;;;;5092722;28;20083;-51
2022/04/08 09:31:48;;;;;;;6.70;2.50;;;8.60;87.70;;;;;;5081012;28;20094;-50
2022/04/08 09:34:33;;;;;;;7.88;2.45;;;8.70;86.50;;;;;;5072175;28;20082;-46
2022/04/08 09:37:17;;;;;;;9.93;2.83;;;8.80;86.40;;;;;;5072087;28;20035;-49
2022/04/08 09:40:03;;;;;;;;;;;9.00;86.70;;;;;;5072815;28;20085;-48
2022/04/08 09:42:48;;;;;;;;;;;9.20;86.60;;;;;;5103305;28;19915;-51
2022/04/08 09:45:33;;;;;;;6.10;2.75;;;9.00;87.70;;;;;;5113281;28;19915;-51
2022/04/08 09:48:17;;;;;;;7.63;2.53;;;9.10;86.90;;;;;;5113651;28;20106;-46
2022/04/08 09:51:02;;;;;;;4.95;3.25;;;9.20;87.00;;;;;;5114089;28;20038;-48
2022/04/08 09:53:57;;;;;;;;;;;9.10;86.00;;;;;;5115050;28;20058;-48
2022/04/08 09:56:43;;;;;;;6.10;2.80;;;9.00;85.80;;;;;;5100436;28;19915;-50
2022/04/08 09:59:30;;;;;;;7.07;2.80;;;9.00;86.00;;;;;;5085530;28;20698;-46
2022/04/08 10:02:15;;;;;;;8.68;2.97;;;9.10;85.10;;;;;;5103335;28;20042;-51
2022/04/08 10:04:59;;;;;;;;;;;9.00;83.50;;;;;;5112589;28;20133;-47
2022/04/08 10:07:47;;;;;;;3.92;2.38;;;9.20;82.80;;;;;;5072942;28;20414;-48
2022/04/08 10:10:51;;;;;;;6.05;2.63;;;9.10;82.10;;;;;;5070411;28;20081;-50
2022/04/08 10:14:17;;;;;;;8.00;2.80;;;9.00;82.30;;;;;;5070785;28;20036;-52
2022/04/08 10:17:02;;;;;;;5.63;2.58;;;8.80;83.40;;;;;;5055694;28;20060;-47
2022/04/08 10:19:46;;;;;;;4.43;2.35;;;9.10;82.00;;;;;;5071497;28;20407;-46
2022/04/08 10:22:41;;;;;;;5.93;2.60;;;9.10;82.00;;;;;;5071129;28;20495;-47
2022/04/08 10:25:35;;;;;;;7.65;3.35;;;9.10;82.00;;;;;;5070985;28;20608;-50
2022/04/08 10:28:20;;;;;;;6.47;2.72;;;9.40;81.30;;;;;;5088071;28;20043;-51
2022/04/08 10:31:23;;;;;;;7.10;2.67;;;9.20;81.80;;;;;;5088769;28;20106;-49
2022/04/08 10:34:08;;;;;;;6.80;2.50;;;9.40;81.30;;;;;;5088912;28;20030;-47
2022/04/08 10:36:52;;;;;;;7.00;2.47;;;9.20;79.70;;;;;;5072052;28;20691;-48
2022/04/08 10:39:37;;;;;;;4.85;2.50;;;9.30;79.60;;;;;;5071138;28;20083;-45
2022/04/08 10:42:25;;;;;;;4.43;2.70;;;9.40;80.40;;;;;;5093169;28;20738;-45
2022/04/08 10:45:14;;;;;;;10.90;2.70;;;9.50;80.60;;;;;;5090443;28;20287;-47
2022/04/08 10:48:12;;;;;;;10.68;2.70;;;9.50;80.60;;;;;;5091029;28;20246;-52
2022/04/08 10:51:16;;;;;;;8.88;2.72;;;9.50;80.10;;;;;;5071015;28;20039;-49
2022/04/08 10:54:04;;;;;;;7.72;2.60;;;9.50;80.10;;;;;;5069435;28;20074;-48
2022/04/08 10:56:59;;;;;;;6.38;2.75;;;9.50;79.20;;;;;;5070666;28;20032;-49
2022/04/08 10:59:52;;;;;;;5.93;2.67;;;9.50;80.30;;;;;;5087182;28;20616;-51
2022/04/08 11:02:41;;;;;;;13.30;3.22;;;9.50;80.30;;;;;;5090680;28;20030;-47
2022/04/08 11:05:25;;;;;;;7.20;2.83;;;9.60;80.60;;;;;;5090175;28;20032;-50
2022/04/08 11:08:09;;;;;;;6.38;2.53;;;9.60;80.20;;;;;;5094678;28;20031;-49
2022/04/08 11:10:57;;;;;;;4.60;2.57;;;9.90;79.70;;;;;;5096564;28;20128;-47
2022/04/08 11:13:42;;;;;;;5.40;2.50;;;10.00;78.80;;;;;;5094825;28;20336;-49
2022/04/08 11:16:31;;;;;;;6.43;2.80;;;10.10;79.50;;;;;;5110758;28;20072;-51
2022/04/08 11:19:15;;;;;;;8.73;3.17;;;10.00;79.80;;;;;;5111149;28;20031;-46
2022/04/08 11:22:00;;;;;;;5.53;2.75;;;9.80;81.00;;;;;;5109988;28;20489;-48
2022/04/08 11:24:44;;;;;;;7.60;2.88;;;9.80;81.60;;;;;;5113600;28;20540;-52
2022/04/08 11:27:31;;;;;;;7.93;3.03;;;10.20;80.80;;;;;;5072904;28;20089;-50
2022/04/08 11:30:17;;;;;;;12.13;4.47;;;10.00;80.60;;;;;;5084855;28;20527;-52
2022/04/08 11:33:13;;;;;;;8.48;3.50;;;10.20;81.30;;;;;;5099396;28;20046;-52
2022/04/08 11:36:00;;;;;;;5.60;3.13;;;10.20;81.50;;;;;;5086414;28;20035;-53
2022/04/08 11:38:44;;;;;;;10.73;3.42;;;10.00;81.70;;;;;;5093472;28;20691;-51
2022/04/08 11:41:28;;;;;;;9.30;3.40;;;10.00;81.40;;;;;;5098013;28;20122;-54
2022/04/08 11:44:13;;;;;;;5.88;3.30;;;10.20;82.00;;;;;;5099537;28;20042;-51
2022/04/08 11:47:07;;;;;;;5.83;3.20;;;10.20;83.00;;;;;;5094131;28;20081;-54
2022/04/08 11:50:04;;;;;;;5.55;3.38;;;10.30;82.00;;;;;;5093995;28;20047;-50
2022/04/08 11:52:53;;;;;;;5.82;3.20;;;10.20;82.30;;;;;;5087373;28;20035;-54
2022/04/08 11:55:37;;;;;;;8.23;3.70;;;10.20;82.80;;;;;;5093353;28;20035;-53
2022/04/08 11:58:22;;;;;;;9.25;3.60;;;10.30;82.80;;;;;;5092860;28;20046;-51
2022/04/08 12:01:08;;;;;;;6.93;4.22;;;10.20;82.80;;;;;;5094125;28;20035;-48
2022/04/08 12:03:52;;;;;;;5.78;3.53;;;10.00;83.30;;;;;;5075366;28;20105;-51
2022/04/08 12:06:42;;;;;;;5.23;3.53;;;9.90;82.60;;;;;;5089448;28;20039;-53
2022/04/08 12:09:28;;;;;;;7.65;3.72;;;9.80;83.10;;;;;;5092550;28;20312;-54
2022/04/08 12:12:12;;;;;;;6.28;3.40;;;10.00;82.60;;;;;;5093043;28;20043;-51
2022/04/08 12:15:09;;;;;;;5.50;3.58;;;9.90;81.70;;;;;;5093642;28;20105;-53
2022/04/08 12:17:55;;;;;;;7.78;3.97;;;9.90;82.90;;;;;;5093767;28;20382;-49
2022/04/08 12:20:40;;;;;;;7.32;3.20;;;9.90;83.80;;;;;;5093754;28;20063;-52
2022/04/08 12:23:27;;;;;;;8.55;3.40;;;10.10;82.20;;;;;;5093416;28;20027;-53
2022/04/08 12:26:11;;;;;;;5.60;3.50;;;10.20;82.20;;;;;;5093509;28;20035;-53
2022/04/08 12:29:27;;;;;;;4.65;3.33;;;10.10;84.20;;;;;;5093597;28;20055;-56
2022/04/08 12:32:15;;;;;;;7.93;3.00;;;10.10;81.50;;;;;;5086334;28;20085;-50
2022/04/08 12:35:00;;;;;;;4.05;2.95;;;10.20;79.30;;;;;;5091029;28;20039;-51
2022/04/08 12:37:44;;;;;;;7.13;3.20;;;9.90;80.60;;;;;;5078765;28;20173;-52
2022/04/08 12:40:28;;;;;;;8.07;3.00;;;10.00;80.00;;;;;;5074175;28;20074;-52
2022/04/08 12:43:12;;;;;;;4.63;3.40;;;9.90;79.60;;;;;;5111651;28;20062;-52
2022/04/08 12:45:57;;;;;;;7.32;3.33;;;9.90;79.50;;;;;;5113177;28;20026;-53
2022/04/08 12:48:41;;;;;;;5.57;3.42;;;9.80;80.60;;;;;;5112882;28;20066;-50
2022/04/08 12:51:25;;;;;;;7.00;3.47;;;9.90;80.90;;;;;;5097167;28;20137;-49
2022/04/08 12:54:11;;;;;;;6.15;3.85;;;9.80;81.10;;;;;;5112811;28;20034;-53
2022/04/08 12:56:55;;;;;;;7.03;3.45;;;9.80;81.20;;;;;;5112291;28;20410;-55
2022/04/08 12:59:40;;;;;;;5.53;3.50;;;9.80;80.90;;;;;;5113099;28;20031;-53
2022/04/08 13:02:24;;;;;;;6.35;3.83;;;9.70;81.30;;;;;;5112910;28;20047;-51
2022/04/08 13:05:08;;;;;;;5.33;3.83;;;9.90;81.60;;;;;;5111925;28;20081;-52
2022/04/08 13:07:53;;;;;;;5.60;3.78;;;9.80;82.30;;;;;;5096615;28;20287;-52
2022/04/08 13:10:37;;;;;;;5.20;3.65;;;9.80;82.90;;;;;;5092432;28;20074;-56
2022/04/08 13:13:22;;;;;;;5.82;3.30;;;9.90;82.30;;;;;;5090336;28;20031;-52
2022/04/08 13:16:06;;;;;;;5.73;3.60;;;9.90;81.60;;;;;;5091711;28;20043;-52
2022/04/08 13:18:50;;;;;;;5.95;3.90;;;9.90;82.00;;;;;;5092028;28;20350;-54
2022/04/08 13:21:34;;;;;;;5.90;4.10;;;9.80;81.90;;;;;;5091813;28;20035;-55
2022/04/08 13:24:19;;;;;;;6.03;3.93;;;9.90;82.50;;;;;;5091974;28;20035;-52
2022/04/08 13:27:04;;;;;;;9.77;4.47;;;9.80;82.20;;;;;;5091863;28;20046;-52
2022/04/08 13:29:49;;;;;;;6.35;4.43;;;9.80;82.80;;;;;;5092450;28;20256;-55
2022/04/08 13:32:36;;;;;;;;;;;9.80;82.90;;;;;;5095002;28;20109;-54
2022/04/08 13:35:21;;;;;;;8.18;4.38;;;9.90;83.50;;;;;;5084642;28;20435;-49
2022/04/08 13:38:05;;;;;;;7.15;5.25;;;9.90;84.50;;;;;;5091802;28;20043;-49
2022/04/08 13:40:50;;;;;;;6.95;5.22;;;10.00;84.90;;;;;;5087697;28;20135;-51
2022/04/08 13:43:34;;;;;;;;;;;9.90;84.60;;;;;;5087182;28;20051;-53
2022/04/08 13:46:18;;;;;;;7.93;5.38;;;9.80;84.70;;;;;;5090870;28;20288;-54
2022/04/08 13:49:02;;;;;;;5.20;4.63;;;9.80;85.90;;;;;;5090296;28;20063;-56
2022/04/08 13:51:46;;;;;;;6.30;4.93;;;9.80;84.80;;;;;;5091569;28;20085;-52
2022/04/08 13:54:30;;;;;;;7.45;5.10;;;9.90;83.20;;;;;;5091047;28;20093;-57
2022/04/08 13:57:14;;;;;;;9.02;4.82;;;9.80;82.90;;;;;;5091035;28;20046;-56
2022/04/08 14:00:01;;;;;;;6.50;4.80;;;9.70;83.10;;;;;;5092606;28;20034;-58
2022/04/08 14:02:45;;;;;;;5.80;4.63;;;9.80;82.90;;;;;;5093030;28;20459;-55
2022/04/08 14:05:29;;;;;;;7.88;5.28;;;9.80;83.10;;;;;;5092237;28;20113;-54
2022/04/08 14:08:13;;;;;;;6.80;4.70;;;9.90;83.40;;;;;;5090830;28;20097;-58
2022/04/08 14:11:00;;;;;;;5.82;5.22;;;10.00;82.30;;;;;;5091212;28;20035;-52
2022/04/08 14:13:44;;;;;;;8.55;5.63;;;10.00;82.60;;;;;;5091008;28;20451;-50
2022/04/08 14:16:29;;;;;;;6.97;5.93;;;10.00;83.30;;;;;;5091252;28;20116;-51
2022/04/08 14:19:13;;;;;;;9.95;6.82;;;9.90;83.40;;;;;;5090881;28;20423;-54
2022/04/08 14:21:57;;;;;;;9.23;5.80;;;9.80;84.80;;;;;;5091225;28;20100;-52
2022/04/08 14:24:42;;;;;;;9.30;5.95;;;9.80;83.80;;;;;;5091300;28;20032;-50
2022/04/08 14:27:26;;;;;;;6.13;5.35;;;9.80;82.50;;;;;;5071034;28;20040;-52
2022/04/08 14:30:10;;;;;;;9.30;6.22;;;9.70;81.50;;;;;;5070793;28;20043;-51
2022/04/08 14:32:54;;;;;;;8.18;5.45;;;9.80;82.20;;;;;;5089190;28;20035;-54